Time;durP1;ratioP1;P1;durP2;ratioP2;P2;SDS_P1;SDS_P2;PMS_P1;PMS_P2;Temp;Humidity;BMP_temperature;BMP_pressure;BME280_temperature;BME280_humidity;BME280_pressure;Samples;Min_cycle;Max_cycle;Signal;HPM_P1;HPM_P2
2024/02/12 00:01:55;;;;;;;2.58;1.13;;;;;;;11.11;60.94;98185.84;4147726;28;20100;-75
2024/02/12 00:03:56;;;;;;;2.53;1.00;;;;;;;11.04;61.40;98191.13;4147263;28;20080;-76
2024/02/12 00:05:56;;;;;;;3.53;1.27;;;;;;;10.87;61.52;98183.38;4147283;28;20022;-76
2024/02/12 00:07:57;;;;;;;3.38;1.13;;;;;;;11.05;61.51;98187.44;4147723;28;20057;-75
2024/02/12 00:09:58;;;;;;;3.05;1.08;;;;;;;10.99;61.39;98182.88;4146626;28;20032;-76
2024/02/12 00:11:58;;;;;;;2.85;1.02;;;;;;;10.75;62.06;98188.41;4147213;28;20029;-75
2024/02/12 00:14:00;;;;;;;3.80;1.33;;;;;;;10.81;62.03;98186.84;4145728;28;20026;-76
2024/02/12 00:16:00;;;;;;;;;;;;;;;10.76;61.89;98183.88;4147879;28;20030;-75
2024/02/12 00:18:00;;;;;;;2.90;0.90;;;;;;;10.96;61.51;98184.06;4151006;28;20035;-75
2024/02/12 00:20:06;;;;;;;3.58;1.10;;;;;;;10.90;61.83;98191.03;4156177;28;20061;-76
2024/02/12 00:22:07;;;;;;;3.08;0.90;;;;;;;10.78;62.13;98181.84;4156528;28;20115;-76
2024/02/12 00:24:08;;;;;;;5.80;1.33;;;;;;;10.79;62.47;98182.66;4154784;28;20048;-76
2024/02/12 00:26:09;;;;;;;3.15;1.02;;;;;;;10.80;62.48;98184.31;4154378;28;20026;-77
2024/02/12 00:28:10;;;;;;;3.17;1.10;;;;;;;10.88;62.32;98184.19;4146586;28;20028;-76
2024/02/12 00:30:12;;;;;;;3.47;1.00;;;;;;;10.85;62.56;98182.72;4146913;28;20116;-76
2024/02/12 00:32:12;;;;;;;3.03;1.17;;;;;;;10.81;62.81;98185.97;4146875;28;20026;-76
2024/02/12 00:34:13;;;;;;;3.35;1.13;;;;;;;10.60;63.31;98184.97;4146179;28;20128;-76
2024/02/12 00:36:15;;;;;;;2.97;1.23;;;;;;;10.62;63.38;98185.59;4160018;28;20056;-75
2024/02/12 00:38:15;;;;;;;3.83;1.38;;;;;;;10.59;63.59;98183.31;4160672;28;20666;-76
2024/02/12 00:40:16;;;;;;;2.47;0.75;;;;;;;10.75;63.38;98184.91;4147820;28;20033;-76
2024/02/12 00:42:17;;;;;;;2.35;1.05;;;;;;;10.74;63.24;98181.41;4149228;28;20030;-77
2024/02/12 00:44:20;;;;;;;3.83;1.10;;;;;;;10.63;63.67;98184.59;4148534;28;20160;-76
2024/02/12 00:46:21;;;;;;;3.13;0.90;;;;;;;10.46;64.11;98189.34;4147125;28;20026;-75
2024/02/12 00:48:22;;;;;;;3.55;1.40;;;;;;;10.59;63.81;98183.31;4146427;28;20037;-77
2024/02/12 00:50:23;;;;;;;4.80;1.40;;;;;;;10.64;63.72;98194.25;4145594;28;20423;-76
2024/02/12 00:52:23;;;;;;;2.33;1.02;;;;;;;10.58;63.74;98187.03;4146515;28;20117;-75
2024/02/12 00:54:26;;;;;;;3.40;1.30;;;;;;;10.59;63.90;98194.00;4146550;28;20099;-76
2024/02/12 00:56:26;;;;;;;2.60;0.93;;;;;;;10.52;63.80;98190.44;4145269;28;20487;-76
2024/02/12 00:58:27;;;;;;;2.75;0.80;;;;;;;10.62;63.50;98190.94;4146087;28;20030;-77
2024/02/12 01:00:28;;;;;;;3.58;1.20;;;;;;;10.66;63.44;98189.56;4145396;28;20431;-76
2024/02/12 01:02:30;;;;;;;2.65;1.00;;;;;;;10.54;63.94;98196.41;4146484;28;20180;-76
2024/02/12 01:04:30;;;;;;;4.63;1.17;;;;;;;10.49;63.84;98198.81;4146716;28;20029;-76
2024/02/12 01:06:30;;;;;;;3.22;0.90;;;;;;;10.61;63.60;98197.31;4144879;28;20034;-75
2024/02/12 01:08:31;;;;;;;2.90;1.02;;;;;;;10.52;63.85;98201.97;4146178;28;20037;-77
2024/02/12 01:10:32;;;;;;;;;;;;;;;10.51;63.70;98200.31;4145942;28;20036;-76
2024/02/12 01:12:32;;;;;;;3.90;1.23;;;;;;;10.36;64.08;98204.81;4145604;28;19909;-76
2024/02/12 01:14:33;;;;;;;4.07;1.10;;;;;;;10.38;64.06;98206.34;4146581;28;20025;-76
2024/02/12 01:16:34;;;;;;;2.28;0.77;;;;;;;10.43;63.83;98203.09;4147510;28;20044;-77
2024/02/12 01:18:34;;;;;;;2.97;0.80;;;;;;;10.35;64.00;98201.34;4146162;28;20102;-75
2024/02/12 01:20:35;;;;;;;2.20;0.90;;;;;;;10.44;63.75;98199.38;4146425;28;20037;-76
2024/02/12 01:22:38;;;;;;;3.03;1.10;;;;;;;10.43;63.93;98195.91;4145305;28;20502;-76
2024/02/12 01:24:38;;;;;;;3.28;0.90;;;;;;;10.49;63.85;98205.00;4146267;28;20022;-77
2024/02/12 01:26:40;;;;;;;3.03;1.20;;;;;;;10.40;63.67;98206.13;4164102;28;20099;-76
2024/02/12 01:28:41;;;;;;;2.63;1.00;;;;;;;10.45;63.59;98209.91;4147481;28;20030;-77
2024/02/12 01:30:42;;;;;;;5.32;1.25;;;;;;;10.63;63.46;98207.81;4149453;28;20109;-75
2024/02/12 01:32:43;;;;;;;2.50;0.90;;;;;;;10.60;63.34;98209.00;4149707;28;20038;-76
2024/02/12 01:34:46;;;;;;;3.75;0.90;;;;;;;10.67;63.04;98203.75;4149437;28;20123;-76
2024/02/12 01:36:46;;;;;;;3.78;1.35;;;;;;;10.71;63.06;98195.16;4149703;28;20030;-76
2024/02/12 01:38:47;;;;;;;2.90;0.90;;;;;;;10.63;63.50;98208.66;4149056;28;20367;-77
2024/02/12 01:40:48;;;;;;;2.97;0.90;;;;;;;10.57;63.57;98201.41;4149631;28;20273;-75
2024/02/12 01:42:53;;;;;;;2.85;0.95;;;;;;;10.74;63.00;98202.78;4149184;28;20026;-76
2024/02/12 01:45:03;;;;;;;2.60;0.80;;;;;;;10.76;63.07;98206.13;4147843;28;20045;-76
2024/02/12 01:47:04;;;;;;;3.80;1.30;;;;;;;10.68;63.30;98200.88;4148178;28;20029;-75
2024/02/12 01:49:10;;;;;;;2.63;0.73;;;;;;;10.54;63.59;98217.78;4148205;28;20033;-76
2024/02/12 01:51:10;;;;;;;2.70;0.88;;;;;;;10.68;63.34;98214.22;4149267;28;20364;-76
2024/02/12 01:53:11;;;;;;;2.50;0.90;;;;;;;10.67;63.43;98214.44;4148861;28;20076;-76
2024/02/12 01:55:11;;;;;;;2.78;1.05;;;;;;;10.54;63.83;98213.25;4148739;28;20030;-76
2024/02/12 01:57:12;;;;;;;3.53;0.95;;;;;;;10.56;63.75;98210.44;4148804;28;20556;-76
2024/02/12 01:59:19;;;;;;;1.63;0.65;;;;;;;10.53;63.72;98218.81;4148301;28;20112;-77
2024/02/12 02:01:19;;;;;;;2.13;0.70;;;;;;;10.45;64.42;98230.44;4148836;28;20058;-76
2024/02/12 02:03:21;;;;;;;4.07;0.95;;;;;;;10.57;63.96;98228.94;4149069;28;20041;-75
2024/02/12 02:05:24;;;;;;;2.92;0.90;;;;;;;10.35;64.40;98220.03;4148933;28;20425;-76
2024/02/12 02:07:24;;;;;;;3.80;1.10;;;;;;;10.49;64.36;98225.53;4147978;28;20177;-76
2024/02/12 02:09:26;;;;;;;3.20;0.80;;;;;;;10.43;64.53;98224.47;4155666;28;20030;-76
2024/02/12 02:11:27;;;;;;;3.17;0.90;;;;;;;10.36;64.76;98227.03;4149437;28;20132;-75
2024/02/12 02:13:28;;;;;;;2.88;0.70;;;;;;;10.42;64.77;98223.63;4148022;28;20052;-76
2024/02/12 02:15:28;;;;;;;3.90;1.35;;;;;;;10.42;64.83;98226.28;4149958;28;20060;-76
2024/02/12 02:17:29;;;;;;;2.47;0.77;;;;;;;10.46;64.82;98232.09;4149489;28;20064;-76
2024/02/12 02:19:29;;;;;;;2.00;0.80;;;;;;;10.42;65.08;98220.97;4148786;28;20028;-75
2024/02/12 02:21:30;;;;;;;1.88;0.80;;;;;;;10.24;65.64;98226.69;4148514;28;20417;-77
2024/02/12 02:23:31;;;;;;;3.25;1.17;;;;;;;10.48;64.72;98229.25;4148614;28;20040;-76
2024/02/12 02:25:31;;;;;;;2.75;1.02;;;;;;;10.57;64.67;98223.59;4148483;28;20073;-75
2024/02/12 02:27:33;;;;;;;3.22;1.13;;;;;;;10.57;64.64;98228.13;4147311;28;20450;-75
2024/02/12 02:29:37;;;;;;;3.25;0.88;;;;;;;10.63;64.37;98222.00;4147784;28;20030;-76
2024/02/12 02:31:38;;;;;;;2.80;1.05;;;;;;;10.64;64.25;98221.00;4148688;28;20049;-75
2024/02/12 02:33:38;;;;;;;;;;;;;;;10.61;64.36;98224.88;4149249;28;20022;-75
2024/02/12 02:35:39;;;;;;;2.43;0.83;;;;;;;10.58;64.58;98225.25;4147512;28;19909;-76
2024/02/12 02:37:41;;;;;;;2.97;0.80;;;;;;;10.67;64.21;98227.78;4147799;28;20513;-76
2024/02/12 02:39:42;;;;;;;3.63;0.80;;;;;;;10.52;64.59;98226.00;4139831;28;20022;-77
2024/02/12 02:41:45;;;;;;;3.53;0.88;;;;;;;10.48;64.87;98229.25;4153857;28;20529;-76
2024/02/12 02:43:46;;;;;;;3.15;0.93;;;;;;;10.54;65.05;98236.50;4163341;28;20455;-75
2024/02/12 02:45:47;;;;;;;4.68;1.38;;;;;;;10.47;64.94;98233.75;4143149;28;20035;-75
2024/02/12 02:47:49;;;;;;;2.72;0.60;;;;;;;10.57;64.71;98233.47;4135029;28;20052;-76
2024/02/12 02:49:50;;;;;;;3.03;0.80;;;;;;;10.39;65.25;98242.69;4131172;28;20023;-76
2024/02/12 02:51:51;;;;;;;3.40;0.93;;;;;;;10.36;65.57;98236.88;4155949;28;20101;-76
2024/02/12 02:53:51;;;;;;;3.47;0.85;;;;;;;10.50;65.00;98240.56;4147046;28;20084;-75
2024/02/12 02:55:52;;;;;;;2.20;0.60;;;;;;;10.45;65.25;98244.63;4130451;28;20030;-75
2024/02/12 02:57:52;;;;;;;2.28;0.75;;;;;;;10.52;65.05;98241.19;4142240;28;20524;-76
2024/02/12 02:59:53;;;;;;;4.43;0.83;;;;;;;10.49;65.13;98236.22;4147845;28;20053;-77
2024/02/12 03:01:54;;;;;;;2.90;0.80;;;;;;;10.41;65.22;98239.84;4147054;28;20572;-76
2024/02/12 03:03:56;;;;;;;2.45;0.70;;;;;;;10.14;65.96;98243.00;4148207;28;20026;-76
2024/02/12 03:05:56;;;;;;;;;;;;;;;10.20;65.72;98238.75;4157421;28;20037;-75
2024/02/12 03:07:58;;;;;;;4.13;1.00;;;;;;;10.22;65.53;98246.56;4162370;28;19977;-75
2024/02/12 03:09:59;;;;;;;2.92;0.75;;;;;;;10.34;65.23;98245.09;4146804;28;20018;-75
2024/02/12 03:11:59;;;;;;;2.35;0.80;;;;;;;10.17;65.94;98252.47;4146881;28;20033;-76
2024/02/12 03:14:00;;;;;;;2.72;0.75;;;;;;;10.33;65.39;98246.09;4147599;28;20034;-76
2024/02/12 03:16:00;;;;;;;2.72;0.93;;;;;;;10.57;64.68;98249.50;4148207;28;20497;-77
2024/02/12 03:18:01;;;;;;;2.55;1.00;;;;;;;10.52;64.95;98246.53;4148124;28;20029;-76
2024/02/12 03:20:02;;;;;;;;;;;;;;;10.28;65.38;98245.84;4147639;28;20390;-75
2024/02/12 03:22:03;;;;;;;3.67;0.90;;;;;;;10.42;65.11;98254.88;4148173;28;20008;-77
2024/02/12 03:24:03;;;;;;;2.35;0.90;;;;;;;10.35;65.55;98262.75;4146841;28;20273;-75
2024/02/12 03:26:08;;;;;;;2.55;0.98;;;;;;;10.30;65.93;98254.47;4148046;28;20101;-76
2024/02/12 03:28:09;;;;;;;4.40;1.08;;;;;;;10.44;65.60;98263.50;4150221;28;20025;-76
2024/02/12 03:30:11;;;;;;;3.28;0.90;;;;;;;10.25;66.03;98268.38;4153551;28;20474;-75
2024/02/12 03:32:11;;;;;;;4.15;1.45;;;;;;;10.26;66.40;98272.72;4153839;28;20025;-76
2024/02/12 03:34:12;;;;;;;2.70;1.10;;;;;;;10.22;66.32;98271.44;4142693;28;20356;-76
2024/02/12 03:36:12;;;;;;;3.85;0.80;;;;;;;10.25;66.37;98265.72;4145646;28;20333;-76
2024/02/12 03:38:12;;;;;;;3.67;1.00;;;;;;;10.24;66.51;98273.91;4141506;28;20124;-76
2024/02/12 03:40:13;;;;;;;3.70;1.05;;;;;;;10.23;66.55;98269.59;4139358;28;20280;-76
2024/02/12 03:42:14;;;;;;;3.67;1.48;;;;;;;10.21;66.55;98276.94;4141438;28;20037;-76
2024/02/12 03:44:14;;;;;;;5.87;1.30;;;;;;;10.34;66.36;98282.47;4161559;28;20022;-76
2024/02/12 03:46:19;;;;;;;4.10;1.20;;;;;;;10.25;66.33;98291.59;4159922;28;20265;-76
2024/02/12 03:59:58;;;;;;;3.60;1.20;;;;;;;10.13;66.13;98300.06;4147372;28;20033;-76
2024/02/12 04:01:59;;;;;;;3.90;1.40;;;;;;;10.36;65.40;98299.16;4147055;28;20049;-76
2024/02/12 04:04:00;;;;;;;4.57;1.23;;;;;;;10.53;65.11;98306.97;4146833;28;20433;-75
2024/02/12 04:06:00;;;;;;;5.37;1.30;;;;;;;10.67;64.66;98305.28;4145520;28;20029;-76
2024/02/12 04:08:04;;;;;;;5.30;1.70;;;;;;;10.25;65.93;98308.44;4147103;28;20276;-75
2024/02/12 04:10:12;;;;;;;5.75;1.70;;;;;;;10.11;66.36;98314.63;4146876;28;20034;-75
2024/02/12 04:12:13;;;;;;;4.18;1.42;;;;;;;10.11;66.18;98315.44;4147746;28;20463;-76
2024/02/12 04:14:13;;;;;;;3.80;1.45;;;;;;;10.07;65.99;98318.66;4147542;28;20040;-77
2024/02/12 04:16:14;;;;;;;3.90;1.48;;;;;;;10.04;66.38;98324.38;4145620;28;20040;-75
2024/02/12 04:18:15;;;;;;;3.92;1.50;;;;;;;10.24;65.76;98319.31;4145261;28;20025;-75
2024/02/12 04:20:18;;;;;;;4.32;1.40;;;;;;;10.25;65.69;98326.31;4147388;28;20038;-75
2024/02/12 04:22:18;;;;;;;3.30;1.30;;;;;;;10.18;65.85;98322.75;4147308;28;20021;-75
2024/02/12 04:24:19;;;;;;;4.10;1.45;;;;;;;10.35;65.32;98329.53;4145632;28;20030;-76
2024/02/12 04:26:21;;;;;;;;;;;;;;;10.22;65.65;98326.69;4146523;28;20125;-75
2024/02/12 04:28:22;;;;;;;3.83;1.20;;;;;;;10.38;65.20;98336.38;4161744;28;20417;-76
2024/02/12 04:30:25;;;;;;;4.22;1.70;;;;;;;10.08;65.93;98326.50;4147199;28;20053;-76
2024/02/12 04:32:25;;;;;;;4.53;1.70;;;;;;;10.20;65.87;98344.75;4147029;28;20474;-76
2024/02/12 04:34:26;;;;;;;4.27;1.63;;;;;;;10.36;64.85;98344.56;4147152;28;20084;-76
2024/02/12 04:36:26;;;;;;;4.17;1.70;;;;;;;10.15;65.28;98346.13;4147627;28;20347;-75
2024/02/12 04:38:27;;;;;;;3.67;1.40;;;;;;;10.37;64.65;98351.59;4145466;28;20029;-76
2024/02/12 04:40:27;;;;;;;4.78;2.00;;;;;;;10.19;64.92;98353.78;4147478;28;20037;-77
2024/02/12 04:42:28;;;;;;;3.28;1.48;;;;;;;10.33;64.46;98355.59;4147467;28;20386;-76
2024/02/12 04:44:28;;;;;;;2.95;1.08;;;;;;;10.60;63.61;98362.16;4147068;28;20080;-75
2024/02/12 04:46:29;;;;;;;3.92;1.73;;;;;;;10.30;64.48;98355.97;4146971;28;20030;-76
2024/02/12 04:48:31;;;;;;;4.23;1.70;;;;;;;10.59;64.08;98360.50;4146558;28;20030;-75
2024/02/12 04:50:31;;;;;;;6.03;2.13;;;;;;;10.43;64.33;98364.19;4145934;28;20414;-75
2024/02/12 04:52:32;;;;;;;4.97;1.83;;;;;;;10.28;64.83;98364.16;4147536;28;20026;-76
2024/02/12 04:54:36;;;;;;;7.07;2.10;;;;;;;10.32;64.64;98369.97;4141893;28;20312;-76
2024/02/12 04:56:37;;;;;;;4.00;1.65;;;;;;;10.18;65.38;98379.63;4140288;28;20018;-76
2024/02/12 04:58:37;;;;;;;3.55;1.52;;;;;;;10.13;65.48;98382.84;4146149;28;20048;-76
2024/02/12 05:00:38;;;;;;;5.45;1.90;;;;;;;10.41;64.60;98368.06;4141310;28;20034;-76
2024/02/12 05:02:40;;;;;;;5.90;1.87;;;;;;;10.43;64.77;98374.88;4146653;28;20048;-76
2024/02/12 05:04:40;;;;;;;4.35;1.73;;;;;;;10.37;65.08;98380.09;4149990;28;20264;-76
2024/02/12 05:06:41;;;;;;;4.35;2.03;;;;;;;10.34;65.00;98370.63;4149792;28;20377;-76
2024/02/12 05:08:42;;;;;;;4.35;1.70;;;;;;;10.19;65.26;98377.81;4149938;28;20269;-75
2024/02/12 05:10:42;;;;;;;5.30;1.92;;;;;;;10.22;65.33;98383.59;4151073;28;20022;-76
2024/02/12 05:12:44;;;;;;;5.90;1.67;;;;;;;10.31;64.87;98384.31;4143785;28;20034;-77
2024/02/12 05:14:46;;;;;;;5.30;1.88;;;;;;;10.19;65.22;98389.31;4150451;28;20032;-76
2024/02/12 05:16:47;;;;;;;5.03;1.70;;;;;;;10.23;65.35;98387.09;4162520;28;20029;-77
2024/02/12 05:23:25;;;;;;;5.05;1.83;;;;;;;10.17;65.56;98395.84;4165078;28;20040;-77
2024/02/12 05:25:25;;;;;;;6.80;1.90;;;;;;;10.24;65.34;98392.28;4165140;28;20105;-77
2024/02/12 05:27:26;;;;;;;4.37;1.77;;;;;;;10.12;65.88;98394.53;4163734;28;20275;-75
2024/02/12 05:29:27;;;;;;;;;;;;;;;10.37;65.59;98398.78;4165406;28;20056;-76
2024/02/12 05:31:28;;;;;;;7.50;2.40;;;;;;;10.31;65.31;98397.69;4164982;28;19928;-76
2024/02/12 05:33:29;;;;;;;4.17;2.13;;;;;;;10.35;65.16;98396.31;4165119;28;20037;-76
2024/02/12 05:35:30;;;;;;;5.60;1.92;;;;;;;10.50;64.78;98395.50;4165029;28;20275;-76
2024/02/12 05:37:30;;;;;;;;;;;;;;;10.33;65.22;98409.03;4165644;28;20022;-76
2024/02/12 05:39:33;;;;;;;9.20;3.10;;;;;;;10.42;64.90;98409.81;4165786;28;19967;-76
2024/02/12 05:41:34;;;;;;;5.82;2.25;;;;;;;10.42;64.78;98410.63;4172352;28;20029;-76
2024/02/12 05:43:34;;;;;;;6.03;1.90;;;;;;;10.29;65.12;98408.56;4179401;28;20053;-75
2024/02/12 05:45:34;;;;;;;7.10;2.23;;;;;;;10.33;64.95;98418.88;4166493;28;20347;-75
2024/02/12 05:47:35;;;;;;;4.45;1.90;;;;;;;10.29;65.19;98421.09;4164958;28;20544;-75
2024/02/12 05:49:35;;;;;;;4.47;2.20;;;;;;;10.31;65.18;98427.06;4164407;28;20474;-76
2024/02/12 05:51:39;;;;;;;6.45;2.53;;;;;;;10.25;65.24;98422.47;4165413;28;20264;-77
2024/02/12 05:53:39;;;;;;;5.65;2.40;;;;;;;10.12;65.51;98431.91;4164866;28;20289;-75
2024/02/12 05:55:40;;;;;;;7.13;3.03;;;;;;;10.20;65.32;98432.88;4164857;28;20056;-76
2024/02/12 05:57:40;;;;;;;7.15;2.08;;;;;;;10.26;65.19;98424.94;4165002;28;20268;-76
2024/02/12 05:59:41;;;;;;;6.75;2.55;;;;;;;10.19;65.32;98436.56;4164668;28;20018;-76
2024/02/12 06:01:41;;;;;;;5.90;2.20;;;;;;;10.21;65.06;98438.03;4164390;28;20560;-76
2024/02/12 06:03:42;;;;;;;5.47;2.92;;;;;;;10.35;64.64;98433.72;4163435;28;20025;-76
2024/02/12 06:05:43;;;;;;;7.82;2.30;;;;;;;10.07;65.26;98450.34;4164143;28;20022;-76
2024/02/12 06:07:43;;;;;;;5.57;2.17;;;;;;;10.24;64.93;98439.50;4164624;28;20448;-77
2024/02/12 06:09:44;;;;;;;5.97;2.30;;;;;;;10.27;64.71;98444.47;4164312;28;20510;-76
2024/02/12 06:11:44;;;;;;;5.85;2.13;;;;;;;10.30;64.79;98452.13;4163696;28;20347;-76
2024/02/12 06:13:45;;;;;;;6.07;2.03;;;;;;;10.05;65.36;98454.19;4164542;28;20031;-75
2024/02/12 06:15:45;;;;;;;5.40;2.15;;;;;;;10.11;65.18;98450.81;4164558;28;20029;-75
2024/02/12 06:17:46;;;;;;;10.30;3.67;;;;;;;10.17;65.01;98457.25;4163806;28;20057;-76
2024/02/12 06:19:46;;;;;;;4.67;1.90;;;;;;;9.94;65.70;98458.97;4164903;28;20279;-76
2024/02/12 06:21:47;;;;;;;5.47;2.42;;;;;;;10.17;64.98;98457.25;4164885;28;20346;-76
2024/02/12 06:23:47;;;;;;;4.83;2.00;;;;;;;10.19;64.92;98463.25;4164802;28;20746;-76
2024/02/12 06:25:48;;;;;;;5.55;2.15;;;;;;;10.13;65.20;98464.81;4165299;28;20268;-76
2024/02/12 06:27:48;;;;;;;6.03;2.30;;;;;;;10.24;64.71;98463.53;4164604;28;20040;-77
2024/02/12 06:29:49;;;;;;;5.97;2.72;;;;;;;10.10;65.42;98471.34;4164562;28;20109;-75
2024/02/12 06:31:49;;;;;;;5.85;2.60;;;;;;;10.03;65.50;98473.06;4163046;28;20491;-75
2024/02/12 06:33:50;;;;;;;5.20;2.40;;;;;;;10.04;65.27;98472.03;4164432;28;20032;-76
2024/02/12 06:35:52;;;;;;;7.45;2.67;;;;;;;10.03;65.49;98477.56;4164277;28;20025;-76
2024/02/12 06:37:52;;;;;;;6.85;3.35;;;;;;;10.08;65.47;98478.69;4163288;28;20044;-77
2024/02/12 06:39:53;;;;;;;6.30;2.20;;;;;;;10.32;64.82;98481.31;4164701;28;20026;-76
2024/02/12 06:41:53;;;;;;;7.13;2.55;;;;;;;10.22;64.88;98476.22;4165754;28;20850;-76
2024/02/12 06:43:54;;;;;;;4.50;2.33;;;;;;;10.05;65.36;98492.41;4175815;28;20084;-75
2024/02/12 06:45:54;;;;;;;5.53;2.58;;;;;;;10.24;64.88;98498.25;4172664;28;20035;-75
2024/02/12 06:47:55;;;;;;;5.63;2.38;;;;;;;10.27;64.54;98495.22;4164238;28;20026;-76
2024/02/12 06:49:56;;;;;;;7.32;2.90;;;;;;;10.18;64.51;98504.31;4164196;28;20052;-77
2024/02/12 06:51:57;;;;;;;5.03;2.38;;;;;;;10.09;64.86;98500.88;4164422;28;20425;-76
2024/02/12 06:53:57;;;;;;;5.68;2.47;;;;;;;10.38;64.26;98508.19;4164569;28;20030;-75
2024/02/12 06:55:57;;;;;;;6.73;2.47;;;;;;;10.50;63.45;98505.03;4164565;28;20038;-77
2024/02/12 06:57:58;;;;;;;4.90;2.47;;;;;;;10.30;64.24;98510.88;4166655;28;20466;-77
2024/02/12 06:59:58;;;;;;;5.03;2.17;;;;;;;10.08;64.68;98507.22;4176564;28;20692;-76
2024/02/12 07:01:59;;;;;;;6.20;2.65;;;;;;;10.09;64.73;98515.06;4175938;28;20069;-76
2024/02/12 07:04:00;;;;;;;5.35;2.20;;;;;;;10.29;63.96;98515.41;4172939;28;20033;-76
2024/02/12 07:06:00;;;;;;;5.63;2.35;;;;;;;10.15;64.30;98519.69;4170877;28;20018;-76
2024/02/12 07:08:00;;;;;;;5.38;2.15;;;;;;;10.34;63.75;98524.72;4167481;28;20040;-77
2024/02/12 07:10:01;;;;;;;5.75;2.00;;;;;;;10.14;63.83;98522.53;4164042;28;20021;-76
2024/02/12 07:12:03;;;;;;;5.20;2.50;;;;;;;10.10;64.43;98529.25;4163927;28;20033;-76
2024/02/12 07:14:03;;;;;;;5.63;2.22;;;;;;;10.28;63.83;98526.28;4163785;28;20025;-75
2024/02/12 07:16:05;;;;;;;5.07;2.17;;;;;;;10.63;62.81;98526.63;4162387;28;20116;-75
2024/02/12 07:18:05;;;;;;;4.55;2.15;;;;;;;10.37;63.61;98533.22;4162113;28;20272;-75
2024/02/12 07:20:09;;;;;;;4.18;2.00;;;;;;;10.53;63.21;98536.75;4162025;28;20027;-76
2024/02/12 07:22:10;;;;;;;6.32;2.30;;;;;;;10.29;64.17;98544.78;4162227;28;20056;-76
2024/02/12 07:24:10;;;;;;;5.10;2.63;;;;;;;10.22;64.21;98548.34;4164338;28;20037;-75
2024/02/12 07:26:11;;;;;;;5.72;2.58;;;;;;;10.05;64.84;98548.47;4163400;28;20034;-76
2024/02/12 07:28:11;;;;;;;5.10;2.10;;;;;;;10.12;64.54;98546.75;4163920;28;20040;-77
2024/02/12 07:30:12;;;;;;;5.57;2.38;;;;;;;10.15;64.64;98551.72;4163225;28;20064;-75
2024/02/12 07:32:13;;;;;;;5.00;2.60;;;;;;;10.37;64.10;98553.72;4162372;28;20029;-76
2024/02/12 07:34:14;;;;;;;7.00;2.67;;;;;;;10.17;64.60;98554.22;4163546;28;20048;-76
2024/02/12 07:36:14;;;;;;;5.72;2.50;;;;;;;10.31;64.32;98568.63;4163202;28;20478;-76
2024/02/12 07:38:15;;;;;;;5.75;2.60;;;;;;;9.99;65.44;98573.22;4163038;28;20029;-75
2024/02/12 07:40:15;;;;;;;6.63;2.85;;;;;;;10.14;64.93;98568.75;4163421;28;20029;-76
2024/02/12 07:42:17;;;;;;;5.38;2.63;;;;;;;10.02;65.45;98578.19;4161724;28;20033;-78
2024/02/12 07:44:17;;;;;;;7.03;2.80;;;;;;;10.17;65.13;98570.22;4163636;28;20033;-76
2024/02/12 07:46:18;;;;;;;6.97;2.65;;;;;;;10.13;65.41;98585.78;4162851;28;20109;-76
2024/02/12 07:48:18;;;;;;;6.78;2.58;;;;;;;10.24;65.24;98578.38;4161388;28;20463;-77
2024/02/12 07:50:19;;;;;;;6.77;3.37;;;;;;;10.51;64.42;98594.88;4163044;28;20021;-76
2024/02/12 07:52:19;;;;;;;7.60;3.03;;;;;;;10.40;64.72;98593.47;4163401;28;20290;-76
2024/02/12 07:54:20;;;;;;;4.38;2.42;;;;;;;10.21;65.42;98600.09;4163305;28;20646;-76
2024/02/12 07:56:20;;;;;;;7.32;3.15;;;;;;;10.35;65.10;98599.31;4161622;28;20036;-76
2024/02/12 07:58:21;;;;;;;6.63;2.92;;;;;;;10.36;65.10;98606.34;4162169;28;20033;-76
2024/02/12 08:00:22;;;;;;;;;;;;;;;10.24;65.39;98603.25;4163327;28;20482;-76
2024/02/12 08:02:23;;;;;;;6.47;2.90;;;;;;;10.19;65.71;98610.94;4161644;28;19917;-75
2024/02/12 08:04:24;;;;;;;7.90;3.03;;;;;;;10.48;64.81;98611.28;4163249;28;20375;-76
2024/02/12 08:06:24;;;;;;;6.55;2.30;;;;;;;10.48;64.90;98613.97;4161746;28;20159;-77
2024/02/12 08:08:25;;;;;;;9.87;3.50;;;;;;;10.08;66.06;98614.88;4160614;28;20040;-77
2024/02/12 08:10:25;;;;;;;9.00;3.27;;;;;;;10.06;66.35;98622.22;4161505;28;20903;-76
2024/02/12 08:12:25;;;;;;;9.98;3.58;;;;;;;10.29;65.70;98622.22;4163213;28;20036;-76
2024/02/12 08:14:26;;;;;;;7.40;3.10;;;;;;;10.41;65.13;98625.34;4166556;28;20057;-76
2024/02/12 08:16:27;;;;;;;6.47;2.90;;;;;;;10.65;64.68;98622.66;4172948;28;20029;-77
2024/02/12 08:18:28;;;;;;;7.10;2.80;;;;;;;10.47;65.25;98621.13;4176194;28;20029;-77
2024/02/12 08:20:28;;;;;;;;;;;;;;;10.73;64.67;98623.44;4174304;28;20047;-75
2024/02/12 08:22:29;;;;;;;7.00;3.03;;;;;;;10.61;65.02;98631.06;4163166;28;19909;-75
2024/02/12 08:24:29;;;;;;;7.03;3.00;;;;;;;10.75;64.43;98631.25;4163190;28;20029;-76
2024/02/12 08:26:30;;;;;;;5.85;2.90;;;;;;;10.64;64.89;98635.19;4161016;28;20271;-76
2024/02/12 08:28:31;;;;;;;;;;;;;;;10.42;65.26;98631.53;4162363;28;20112;-74
2024/02/12 08:30:31;;;;;;;6.33;3.13;;;;;;;10.68;64.88;98636.47;4162682;28;19954;-75
2024/02/12 08:32:32;;;;;;;6.80;3.42;;;;;;;10.72;64.66;98637.81;4162449;28;20405;-74
2024/02/12 08:34:32;;;;;;;6.53;3.00;;;;;;;10.58;65.26;98628.72;4161961;28;20036;-76
2024/02/12 08:36:33;;;;;;;9.15;3.58;;;;;;;10.44;65.74;98651.72;4162386;28;20073;-76
2024/02/12 08:38:33;;;;;;;8.17;3.70;;;;;;;10.36;66.03;98642.88;4161649;28;20060;-76
2024/02/12 08:40:34;;;;;;;8.90;3.80;;;;;;;10.34;66.15;98656.44;4162447;28;20272;-76
2024/02/12 08:42:34;;;;;;;8.43;3.28;;;;;;;10.53;65.65;98660.47;4164190;28;20029;-75
2024/02/12 08:44:35;;;;;;;6.85;3.40;;;;;;;10.51;65.65;98659.84;4166404;28;20022;-75
2024/02/12 08:46:35;;;;;;;6.60;3.30;;;;;;;10.71;65.22;98657.50;4162466;28;20091;-76
2024/02/12 08:48:37;;;;;;;6.38;2.72;;;;;;;10.71;64.94;98657.50;4162281;28;20628;-76
2024/02/12 08:50:37;;;;;;;5.78;2.47;;;;;;;10.90;64.60;98666.03;4163085;28;20353;-76
2024/02/12 08:52:38;;;;;;;9.35;3.35;;;;;;;10.79;64.72;98666.47;4162547;28;20120;-75
2024/02/12 08:54:38;;;;;;;5.68;3.20;;;;;;;10.68;65.03;98670.41;4162316;28;20041;-76
2024/02/12 08:56:41;;;;;;;6.28;3.42;;;;;;;10.50;65.61;98670.69;4163231;28;20029;-76
2024/02/12 08:58:45;;;;;;;6.00;3.30;;;;;;;10.68;64.80;98673.91;4162062;28;20037;-76
2024/02/12 09:00:46;;;;;;;6.88;2.80;;;;;;;10.57;65.01;98672.50;4161382;28;20029;-75
2024/02/12 09:02:46;;;;;;;7.90;2.78;;;;;;;10.57;65.19;98675.16;4163695;28;20057;-76
2024/02/12 09:04:48;;;;;;;7.60;3.00;;;;;;;10.60;64.79;98682.84;4165189;28;20436;-76
2024/02/12 09:06:48;;;;;;;5.78;2.90;;;;;;;11.07;63.68;98686.28;4170205;28;20025;-77
2024/02/12 09:08:49;;;;;;;8.40;2.70;;;;;;;11.30;62.81;98679.22;4168602;28;20033;-76
2024/02/12 09:10:49;;;;;;;5.63;2.58;;;;;;;11.44;62.45;98688.25;4168764;28;20033;-76
2024/02/12 09:12:51;;;;;;;6.28;2.75;;;;;;;11.08;63.27;98690.63;4175202;28;20045;-75
2024/02/12 09:14:52;;;;;;;8.85;3.20;;;;;;;11.11;63.40;98683.25;4174739;28;20025;-75
2024/02/12 09:16:52;;;;;;;5.30;2.90;;;;;;;10.74;64.01;98694.59;4174940;28;20075;-74
2024/02/12 09:18:54;;;;;;;7.40;3.00;;;;;;;10.66;64.19;98691.97;4175276;28;20025;-76
2024/02/12 09:20:56;;;;;;;6.63;2.60;;;;;;;10.92;63.38;98682.75;4179172;28;20321;-76
2024/02/12 09:22:58;;;;;;;6.03;2.95;;;;;;;11.20;62.89;98699.03;4162768;28;20032;-75
2024/02/12 09:24:58;;;;;;;6.10;2.67;;;;;;;11.32;62.58;98690.56;4162706;28;20325;-76
2024/02/12 09:26:58;;;;;;;6.20;2.78;;;;;;;11.40;61.96;98698.50;4162801;28;20022;-76
2024/02/12 09:29:01;;;;;;;7.40;3.30;;;;;;;11.31;61.88;98689.75;4160965;28;20040;-76
2024/02/12 09:31:02;;;;;;;6.88;2.75;;;;;;;11.08;62.27;98689.81;4162599;28;20032;-76
2024/02/12 09:33:02;;;;;;;7.57;3.35;;;;;;;11.55;61.23;98695.84;4162017;28;20021;-76
2024/02/12 09:35:03;;;;;;;7.60;3.15;;;;;;;11.41;61.57;98694.00;4162178;28;20029;-76
2024/02/12 09:37:04;;;;;;;5.82;3.03;;;;;;;11.14;62.09;98698.94;4160221;28;20090;-75
2024/02/12 09:39:05;;;;;;;6.18;2.90;;;;;;;11.18;61.99;98708.25;4161888;28;20480;-75
2024/02/12 09:41:06;;;;;;;6.07;2.53;;;;;;;11.50;61.22;98712.44;4162117;28;20029;-75
2024/02/12 09:43:07;;;;;;;5.22;2.38;;;;;;;11.50;61.16;98706.28;4162056;28;20033;-76
2024/02/12 09:45:11;;;;;;;6.10;2.42;;;;;;;11.45;61.00;98717.53;4166829;28;20033;-75
2024/02/12 09:47:18;;;;;;;4.70;2.70;;;;;;;11.22;61.61;98709.56;4169276;28;20095;-77
2024/02/12 09:49:19;;;;;;;4.75;2.30;;;;;;;11.36;61.34;98708.75;4170498;28;20056;-75